Time;durP1;ratioP1;P1;durP2;ratioP2;P2;SDS_P1;SDS_P2;PMS_P1;PMS_P2;Temp;Humidity;BMP_temperature;BMP_pressure;BME280_temperature;BME280_humidity;BME280_pressure;Samples;Min_cycle;Max_cycle;Signal;HPM_P1;HPM_P2
2022/03/29 00:00:17;;;;;;;4.57;3.67;;;8.50;81.00;;;;;;4976877;28;20169;-64
2022/03/29 00:02:43;;;;;;;6.28;4.90;;;8.50;81.20;;;;;;4978161;28;20164;-67
2022/03/29 00:05:09;;;;;;;5.90;4.40;;;8.50;81.50;;;;;;4979568;28;20190;-65
2022/03/29 00:07:35;;;;;;;5.13;4.03;;;8.50;81.80;;;;;;4977055;28;20163;-65
2022/03/29 00:10:07;;;;;;;5.43;4.93;;;8.40;82.10;;;;;;4978038;28;20406;-66
2022/03/29 00:12:36;;;;;;;10.13;4.60;;;8.40;82.50;;;;;;4978203;28;20203;-65
2022/03/29 00:15:04;;;;;;;6.63;4.00;;;8.40;82.70;;;;;;4977569;28;20184;-66
2022/03/29 00:17:29;;;;;;;6.68;5.43;;;8.30;83.00;;;;;;4977869;28;20187;-65
2022/03/29 00:19:55;;;;;;;5.53;4.73;;;8.30;83.20;;;;;;4977563;28;20170;-66
2022/03/29 00:22:20;;;;;;;4.97;4.47;;;8.40;83.50;;;;;;4977416;28;20174;-66
2022/03/29 00:24:47;;;;;;;10.90;4.70;;;8.30;84.30;;;;;;4977531;28;20187;-67
2022/03/29 00:27:13;;;;;;;5.38;4.88;;;8.30;84.90;;;;;;4977412;28;20175;-65
2022/03/29 00:29:38;;;;;;;3.80;3.47;;;8.20;85.40;;;;;;4978178;28;20200;-65
2022/03/29 00:32:05;;;;;;;4.93;4.30;;;8.20;85.70;;;;;;4978379;28;20641;-66
2022/03/29 00:34:30;;;;;;;4.55;3.72;;;8.20;85.80;;;;;;4977620;28;20169;-66
2022/03/29 00:36:56;;;;;;;4.50;4.03;;;8.20;86.10;;;;;;4977622;28;20504;-64
2022/03/29 00:39:21;;;;;;;9.10;5.70;;;8.10;86.40;;;;;;4975947;28;20240;-65
2022/03/29 00:41:47;;;;;;;6.63;4.70;;;8.10;87.00;;;;;;4976973;28;20172;-64
2022/03/29 00:44:16;;;;;;;5.77;4.80;;;8.10;87.10;;;;;;4976653;28;20211;-66
2022/03/29 00:46:41;;;;;;;5.97;4.00;;;8.10;87.40;;;;;;4975725;28;20179;-66
2022/03/29 00:49:07;;;;;;;7.53;4.47;;;8.10;87.70;;;;;;4976870;28;20182;-65
2022/03/29 00:51:35;;;;;;;7.10;4.23;;;8.10;88.00;;;;;;4976763;28;20178;-65
2022/03/29 00:54:00;;;;;;;6.38;4.55;;;8.00;88.10;;;;;;4976091;28;20186;-65
2022/03/29 00:56:26;;;;;;;4.80;4.40;;;8.00;88.30;;;;;;4976473;28;20199;-65
2022/03/29 00:58:52;;;;;;;4.82;4.10;;;8.00;88.70;;;;;;4976372;28;20204;-65
2022/03/29 01:01:18;;;;;;;5.32;4.55;;;8.00;88.70;;;;;;4976660;28;20171;-65
2022/03/29 01:03:45;;;;;;;5.03;4.63;;;7.90;88.70;;;;;;4975992;28;20718;-65
2022/03/29 01:06:10;;;;;;;5.40;4.88;;;8.00;89.10;;;;;;4976179;28;20455;-65
2022/03/29 01:08:37;;;;;;;7.20;3.80;;;7.90;89.20;;;;;;4976438;28;20187;-65
2022/03/29 01:11:06;;;;;;;3.88;3.35;;;7.90;89.60;;;;;;4975714;28;20170;-65
2022/03/29 01:13:32;;;;;;;4.05;3.60;;;7.90;90.10;;;;;;4976013;28;20166;-65
2022/03/29 01:17:38;;;;;;;7.43;3.72;;;7.90;89.60;;;;;;4976295;28;20229;-65
2022/03/29 01:18:45;;;;;;;4.75;4.30;;;7.90;89.90;;;;;;4976078;28;20218;-65
2022/03/29 01:21:15;;;;;;;4.65;4.25;;;7.90;90.00;;;;;;4976219;28;20634;-65
2022/03/29 01:23:41;;;;;;;4.95;3.53;;;7.90;90.00;;;;;;4975776;28;20207;-65
2022/03/29 01:26:07;;;;;;;5.23;4.67;;;7.90;90.20;;;;;;4976132;28;20223;-66
2022/03/29 01:28:32;;;;;;;5.50;4.60;;;7.80;90.30;;;;;;4976174;28;21017;-65
2022/03/29 01:30:58;;;;;;;5.93;5.00;;;7.80;90.30;;;;;;4975933;28;20227;-66
2022/03/29 01:33:24;;;;;;;9.73;5.07;;;7.80;90.50;;;;;;4975641;28;20178;-66
2022/03/29 01:35:52;;;;;;;5.80;5.20;;;7.80;90.80;;;;;;4975708;28;20203;-65
2022/03/29 01:38:18;;;;;;;5.22;4.78;;;7.70;91.00;;;;;;4975903;28;20833;-65
2022/03/29 01:40:43;;;;;;;5.87;4.97;;;7.70;91.20;;;;;;4975798;28;20174;-66
2022/03/29 01:43:09;;;;;;;8.73;4.70;;;7.80;91.10;;;;;;4975506;28;20207;-65
2022/03/29 01:45:35;;;;;;;6.90;4.60;;;7.70;91.20;;;;;;4975721;28;20281;-65
2022/03/29 01:48:00;;;;;;;5.67;5.13;;;7.80;91.20;;;;;;4975774;28;20902;-65
2022/03/29 01:50:27;;;;;;;5.73;4.83;;;7.70;91.20;;;;;;4975661;28;20230;-66
2022/03/29 01:52:53;;;;;;;6.15;3.95;;;7.80;91.30;;;;;;4975888;28;20286;-66
2022/03/29 01:55:20;;;;;;;4.47;3.90;;;7.70;91.40;;;;;;4982536;28;20207;-64
2022/03/29 01:57:47;;;;;;;5.60;4.05;;;7.70;91.40;;;;;;4976329;28;20480;-65
2022/03/29 02:00:33;;;;;;;5.80;4.18;;;7.70;91.40;;;;;;4975466;28;20501;-65
2022/03/29 02:03:01;;;;;;;8.35;4.65;;;7.70;91.60;;;;;;4975358;28;20173;-65
2022/03/29 02:05:27;;;;;;;4.72;4.18;;;7.60;91.70;;;;;;4974040;28;20201;-64
2022/03/29 02:07:53;;;;;;;7.47;5.43;;;7.60;91.80;;;;;;4975591;28;20659;-66
2022/03/29 02:10:20;;;;;;;4.77;4.30;;;7.60;91.80;;;;;;4975334;28;20258;-65
2022/03/29 02:12:46;;;;;;;5.57;3.95;;;7.50;91.90;;;;;;4975614;28;20564;-66
2022/03/29 02:15:12;;;;;;;4.68;4.28;;;7.50;92.20;;;;;;4974893;28;20254;-65
2022/03/29 02:17:39;;;;;;;5.22;4.35;;;7.50;92.30;;;;;;4975338;28;20179;-66
2022/03/29 02:20:06;;;;;;;6.55;4.40;;;7.50;92.30;;;;;;4975363;28;20608;-65
2022/03/29 02:22:32;;;;;;;5.28;3.58;;;7.50;92.40;;;;;;4974543;28;20160;-65
2022/03/29 02:24:58;;;;;;;5.05;4.60;;;7.50;92.50;;;;;;4973365;28;20249;-64
2022/03/29 02:27:23;;;;;;;8.77;5.60;;;7.50;92.60;;;;;;4975105;28;20246;-65
2022/03/29 02:29:49;;;;;;;5.67;5.07;;;7.50;92.70;;;;;;4975057;28;20657;-65
2022/03/29 02:32:15;;;;;;;6.50;4.50;;;7.40;93.00;;;;;;4974988;28;20621;-65
2022/03/29 02:34:40;;;;;;;5.37;4.23;;;7.40;93.10;;;;;;4974425;28;20285;-65
2022/03/29 02:37:06;;;;;;;6.10;4.10;;;7.40;93.20;;;;;;4975172;28;20414;-65
2022/03/29 02:39:32;;;;;;;7.10;6.37;;;7.30;93.50;;;;;;4974752;28;20195;-65
2022/03/29 02:41:57;;;;;;;6.40;4.77;;;7.30;93.60;;;;;;4974845;28;20243;-65
2022/03/29 02:44:23;;;;;;;7.10;5.50;;;7.30;93.70;;;;;;4974430;28;20195;-65
2022/03/29 02:46:49;;;;;;;4.13;3.60;;;7.30;93.70;;;;;;4974851;28;20249;-64
2022/03/29 02:49:14;;;;;;;5.03;3.97;;;7.30;93.70;;;;;;4973467;28;20253;-66
2022/03/29 02:51:40;;;;;;;4.83;4.43;;;7.40;93.60;;;;;;4974644;28;20917;-65
2022/03/29 02:54:06;;;;;;;5.43;4.23;;;7.40;93.50;;;;;;4974275;28;20641;-65
2022/03/29 02:56:31;;;;;;;6.10;5.10;;;7.40;93.50;;;;;;4974571;28;20201;-65
2022/03/29 02:58:57;;;;;;;5.13;4.27;;;7.40;93.50;;;;;;4974655;28;20271;-65
2022/03/29 03:01:23;;;;;;;8.40;5.70;;;7.40;93.40;;;;;;4974785;28;20659;-64
2022/03/29 03:03:48;;;;;;;4.70;4.30;;;7.40;93.40;;;;;;4974186;28;20238;-65
2022/03/29 03:06:14;;;;;;;5.53;4.00;;;7.50;93.40;;;;;;4974651;28;20651;-65
2022/03/29 03:08:40;;;;;;;4.27;3.83;;;7.40;93.40;;;;;;4974653;28;20307;-66
2022/03/29 03:11:06;;;;;;;4.15;3.80;;;7.40;93.60;;;;;;4974419;28;20173;-66
2022/03/29 03:13:33;;;;;;;6.03;4.10;;;7.40;93.70;;;;;;4974482;28;20181;-66
2022/03/29 03:15:58;;;;;;;5.32;4.80;;;7.30;93.90;;;;;;4975238;28;20508;-66
2022/03/29 03:18:24;;;;;;;5.40;4.50;;;7.30;93.90;;;;;;4975009;28;20293;-65
2022/03/29 03:20:49;;;;;;;4.93;4.43;;;7.30;93.90;;;;;;4974819;28;20165;-64
2022/03/29 03:23:15;;;;;;;4.50;4.13;;;7.30;94.00;;;;;;4974192;28;20681;-65
2022/03/29 03:25:41;;;;;;;6.37;4.77;;;7.20;94.10;;;;;;4974250;28;20188;-65
2022/03/29 03:28:06;;;;;;;6.93;5.63;;;7.20;94.80;;;;;;4974486;28;20204;-67
2022/03/29 03:30:33;;;;;;;8.70;5.30;;;7.10;95.40;;;;;;4974298;28;20177;-65
2022/03/29 03:32:59;;;;;;;6.40;5.15;;;7.10;95.40;;;;;;4974534;28;20177;-66
2022/03/29 03:35:24;;;;;;;9.83;5.33;;;7.10;95.60;;;;;;4977731;28;20602;-65
2022/03/29 03:37:50;;;;;;;5.20;3.87;;;7.00;95.60;;;;;;4978154;28;20634;-66
2022/03/29 03:40:17;;;;;;;8.75;4.95;;;7.10;95.90;;;;;;4978067;28;20196;-66
2022/03/29 03:42:43;;;;;;;9.32;5.30;;;7.00;96.30;;;;;;4978020;28;20247;-66
2022/03/29 03:45:09;;;;;;;6.47;4.17;;;7.00;96.90;;;;;;4977630;28;20279;-65
2022/03/29 03:47:35;;;;;;;7.57;4.18;;;6.90;97.00;;;;;;4977934;28;20528;-65
2022/03/29 03:50:01;;;;;;;4.90;4.30;;;6.90;97.40;;;;;;4977987;28;20179;-65
2022/03/29 03:52:27;;;;;;;8.60;6.60;;;6.90;97.50;;;;;;4977869;28;20235;-65
2022/03/29 03:54:54;;;;;;;7.50;5.50;;;6.90;97.40;;;;;;4977454;28;20197;-65
2022/03/29 03:57:20;;;;;;;8.80;4.43;;;7.00;97.20;;;;;;4977889;28;20857;-65
2022/03/29 03:59:48;;;;;;;5.80;4.77;;;6.90;97.40;;;;;;4977727;28;20285;-65
2022/03/29 04:02:14;;;;;;;7.45;4.32;;;7.00;97.20;;;;;;4977710;28;20408;-65
2022/03/29 04:04:40;;;;;;;5.32;4.60;;;7.00;97.20;;;;;;4977320;28;20184;-65
2022/03/29 04:07:06;;;;;;;6.17;4.30;;;7.00;97.00;;;;;;4978030;28;20174;-65
2022/03/29 04:09:35;;;;;;;6.88;5.57;;;7.00;97.10;;;;;;4977828;28;20408;-65
2022/03/29 04:12:05;;;;;;;6.97;6.28;;;7.00;97.90;;;;;;4977460;28;20173;-65
2022/03/29 04:14:32;;;;;;;5.10;4.50;;;7.00;98.50;;;;;;4977132;28;20219;-65
2022/03/29 04:16:57;;;;;;;6.47;4.30;;;6.90;98.20;;;;;;4977525;28;20686;-65
2022/03/29 04:19:23;;;;;;;6.43;5.87;;;6.80;98.40;;;;;;4977239;28;20494;-66
2022/03/29 04:21:49;;;;;;;6.57;5.23;;;6.70;98.50;;;;;;4977392;28;20623;-64
2022/03/29 04:24:15;;;;;;;5.10;4.60;;;6.70;98.80;;;;;;4976860;28;20165;-64
2022/03/29 04:26:40;;;;;;;8.60;5.47;;;6.70;98.80;;;;;;4977318;28;20228;-66
2022/03/29 04:29:06;;;;;;;6.73;4.07;;;6.60;98.90;;;;;;4977273;28;20415;-65
2022/03/29 04:31:32;;;;;;;4.93;4.03;;;6.50;99.10;;;;;;4977407;28;20176;-64
2022/03/29 04:33:59;;;;;;;6.63;5.95;;;6.50;99.30;;;;;;4976759;28;20202;-65
2022/03/29 04:36:26;;;;;;;7.45;5.57;;;6.50;99.30;;;;;;4976974;28;20211;-64
2022/03/29 04:38:51;;;;;;;6.35;4.93;;;6.50;99.20;;;;;;4977070;28;20547;-65
2022/03/29 04:41:17;;;;;;;4.97;4.10;;;6.50;99.40;;;;;;4977263;28;20168;-64
2022/03/29 04:43:43;;;;;;;6.77;6.00;;;6.60;99.40;;;;;;4986606;28;20179;-67
2022/03/29 04:46:08;;;;;;;9.90;5.67;;;6.50;99.60;;;;;;4977940;28;20193;-66
2022/03/29 04:48:34;;;;;;;6.00;5.23;;;6.50;99.40;;;;;;4976761;28;20205;-65
2022/03/29 04:51:00;;;;;;;7.55;5.90;;;6.50;99.40;;;;;;4976766;28;20172;-65
2022/03/29 04:53:26;;;;;;;5.90;5.30;;;6.60;99.40;;;;;;4976470;28;20235;-65
2022/03/29 04:55:51;;;;;;;6.10;5.07;;;6.50;99.70;;;;;;4976610;28;20277;-65
2022/03/29 04:58:18;;;;;;;7.30;4.33;;;6.50;99.70;;;;;;4976803;28;20238;-66
2022/03/29 05:00:43;;;;;;;5.05;4.22;;;6.50;99.90;;;;;;4976658;28;20172;-66
2022/03/29 05:03:09;;;;;;;7.77;5.33;;;6.40;99.90;;;;;;4976355;28;20260;-65
2022/03/29 05:05:35;;;;;;;6.60;4.73;;;6.40;99.90;;;;;;4976548;28;20737;-66
2022/03/29 05:08:00;;;;;;;7.33;5.63;;;6.40;99.90;;;;;;4974950;28;20184;-65
2022/03/29 05:10:26;;;;;;;5.30;4.53;;;6.40;99.90;;;;;;4976735;28;20179;-64
2022/03/29 05:12:52;;;;;;;4.83;4.43;;;6.30;99.90;;;;;;4976345;28;20528;-64
2022/03/29 05:15:19;;;;;;;5.30;4.70;;;6.30;99.90;;;;;;4974882;28;20532;-65
2022/03/29 05:17:45;;;;;;;5.85;5.35;;;6.30;99.90;;;;;;4976090;28;20512;-65
2022/03/29 05:20:13;;;;;;;7.53;4.95;;;6.30;99.90;;;;;;4974865;28;20168;-66
2022/03/29 05:22:50;;;;;;;6.22;5.03;;;6.30;99.90;;;;;;4976188;28;20172;-66
2022/03/29 05:25:20;;;;;;;5.18;4.68;;;6.30;99.90;;;;;;4975914;28;20737;-66
2022/03/29 05:27:46;;;;;;;5.72;3.92;;;6.30;99.90;;;;;;4976103;28;20168;-66
2022/03/29 05:30:13;;;;;;;7.72;5.95;;;6.30;99.90;;;;;;4975980;28;20168;-65
2022/03/29 05:32:39;;;;;;;11.35;6.55;;;6.30;99.90;;;;;;4976329;28;20693;-65
2022/03/29 05:35:08;;;;;;;6.85;4.78;;;6.30;99.90;;;;;;4975503;28;20220;-65
2022/03/29 05:37:34;;;;;;;4.85;4.35;;;6.30;99.90;;;;;;4975901;28;20251;-64
2022/03/29 05:40:00;;;;;;;8.00;5.45;;;6.40;99.90;;;;;;4975798;28;20168;-65
2022/03/29 05:42:26;;;;;;;7.67;5.43;;;6.50;99.90;;;;;;4975832;28;20168;-65
2022/03/29 05:44:51;;;;;;;7.15;5.82;;;6.60;99.90;;;;;;4975377;28;20193;-65
2022/03/29 05:50:01;;;;;;;7.05;5.57;;;6.80;99.90;;;;;;4975911;28;20215;-66
2022/03/29 05:52:28;;;;;;;5.83;5.20;;;6.90;99.90;;;;;;4976333;28;20264;-70
2022/03/29 05:54:54;;;;;;;9.77;6.03;;;7.00;99.90;;;;;;4986000;28;20189;-66
2022/03/29 05:57:20;;;;;;;5.75;5.15;;;7.20;99.90;;;;;;4974368;28;20164;-69
2022/03/29 05:59:46;;;;;;;5.23;4.73;;;7.30;99.90;;;;;;4976328;28;20252;-67
2022/03/29 06:02:12;;;;;;;7.80;6.23;;;7.40;99.90;;;;;;4975565;28;20190;-70
2022/03/29 06:04:39;;;;;;;7.47;5.38;;;7.50;99.90;;;;;;4989115;28;20189;-67
2022/03/29 06:07:05;;;;;;;7.30;5.50;;;7.60;99.90;;;;;;4975302;28;20542;-65
2022/03/29 06:09:33;;;;;;;7.00;6.22;;;7.70;99.60;;;;;;4990588;28;20179;-66
2022/03/29 06:11:59;;;;;;;5.45;4.95;;;7.90;99.30;;;;;;4999106;28;20181;-66
2022/03/29 06:14:25;;;;;;;8.80;5.33;;;8.10;98.90;;;;;;4981839;28;20280;-66
2022/03/29 06:16:51;;;;;;;7.03;6.27;;;8.30;98.60;;;;;;4990718;28;20424;-66
2022/03/29 06:19:17;;;;;;;6.30;5.28;;;8.40;97.90;;;;;;4994394;28;20563;-66
2022/03/29 06:21:43;;;;;;;7.87;4.90;;;8.50;97.30;;;;;;4983078;28;20178;-66
2022/03/29 06:24:10;;;;;;;6.05;5.45;;;8.60;97.00;;;;;;4974325;28;20222;-67
2022/03/29 06:26:38;;;;;;;7.82;5.03;;;8.60;96.80;;;;;;4975086;28;20554;-67
2022/03/29 06:29:08;;;;;;;8.05;5.05;;;8.70;96.80;;;;;;4981598;28;20182;-67
2022/03/29 06:31:34;;;;;;;6.80;5.80;;;8.70;96.30;;;;;;4994050;28;20648;-67
2022/03/29 06:33:59;;;;;;;5.87;5.17;;;8.90;96.40;;;;;;4987629;28;20262;-67
2022/03/29 06:36:25;;;;;;;5.63;5.03;;;8.90;96.20;;;;;;4975071;28;20215;-65
2022/03/29 06:38:51;;;;;;;10.77;5.73;;;9.10;96.00;;;;;;4975436;28;20623;-67
2022/03/29 06:41:17;;;;;;;11.05;6.13;;;9.40;95.60;;;;;;4972709;28;20563;-67
2022/03/29 06:43:43;;;;;;;7.00;4.30;;;9.50;94.90;;;;;;4979922;28;20164;-67
2022/03/29 06:46:11;;;;;;;11.83;5.90;;;9.70;94.60;;;;;;4985543;28;20203;-68
2022/03/29 06:48:37;;;;;;;9.93;5.95;;;9.90;93.90;;;;;;4975189;28;20424;-67
2022/03/29 06:51:03;;;;;;;8.68;5.30;;;10.00;92.80;;;;;;4974515;28;20179;-67
2022/03/29 06:53:29;;;;;;;6.05;5.45;;;10.10;93.20;;;;;;4976494;28;20272;-67
2022/03/29 06:55:55;;;;;;;7.50;6.10;;;10.20;92.50;;;;;;4974411;28;20276;-67
2022/03/29 06:58:21;;;;;;;11.13;6.93;;;10.40;91.60;;;;;;4984156;28;20465;-66
2022/03/29 07:00:47;;;;;;;8.77;5.73;;;10.50;90.90;;;;;;4982877;28;20172;-65
2022/03/29 07:03:13;;;;;;;8.23;6.22;;;10.60;90.40;;;;;;4974298;28;20175;-68
2022/03/29 07:05:42;;;;;;;11.73;5.97;;;10.60;90.70;;;;;;4981063;28;20200;-66
2022/03/29 07:08:12;;;;;;;9.85;6.45;;;10.50;90.20;;;;;;4993088;28;20217;-66
2022/03/29 07:13:23;;;;;;;7.57;6.30;;;10.70;89.70;;;;;;4973954;28;20215;-67
2022/03/29 07:15:49;;;;;;;9.70;6.30;;;10.80;89.60;;;;;;4981472;28;20673;-67
2022/03/29 07:18:15;;;;;;;9.18;7.32;;;10.90;90.00;;;;;;4993710;28;20447;-67
2022/03/29 07:20:41;;;;;;;7.15;6.45;;;10.90;90.40;;;;;;4991819;28;20191;-65
2022/03/29 07:23:07;;;;;;;8.13;5.93;;;11.00;90.60;;;;;;4993288;28;20173;-65
2022/03/29 07:25:33;;;;;;;8.85;6.15;;;11.00;90.50;;;;;;4991697;28;20202;-65
2022/03/29 07:27:59;;;;;;;6.50;5.77;;;11.20;90.10;;;;;;4985016;28;20182;-66
2022/03/29 07:30:25;;;;;;;7.63;5.77;;;11.20;89.90;;;;;;4974084;28;20189;-65
2022/03/29 07:32:53;;;;;;;13.30;7.63;;;11.30;90.00;;;;;;4975065;28;20432;-66
2022/03/29 07:35:21;;;;;;;9.23;7.60;;;11.50;89.30;;;;;;4973149;28;20464;-66
2022/03/29 07:37:47;;;;;;;9.10;6.87;;;11.70;87.30;;;;;;4976740;28;20432;-65
2022/03/29 07:40:16;;;;;;;9.33;6.50;;;11.80;86.80;;;;;;4972306;28;20455;-66
2022/03/29 07:42:43;;;;;;;8.03;7.23;;;12.00;86.10;;;;;;4985955;28;20900;-66
2022/03/29 07:45:12;;;;;;;7.30;5.70;;;12.20;84.00;;;;;;4996433;28;20441;-67
2022/03/29 07:47:41;;;;;;;9.60;5.50;;;12.40;84.00;;;;;;4980370;28;20423;-69
2022/03/29 07:50:08;;;;;;;7.37;5.40;;;12.90;82.90;;;;;;4972786;28;20445;-68
2022/03/29 07:52:35;;;;;;;8.97;6.53;;;13.20;82.30;;;;;;4973630;28;20507;-68
2022/03/29 07:55:02;;;;;;;12.67;7.30;;;13.60;81.00;;;;;;4972800;28;20435;-66
2022/03/29 07:57:28;;;;;;;6.00;5.30;;;13.80;79.80;;;;;;4973672;28;20420;-69
2022/03/29 07:59:53;;;;;;;12.10;7.30;;;14.00;79.20;;;;;;4973535;28;20521;-67
2022/03/29 08:02:19;;;;;;;8.67;6.60;;;14.00;78.80;;;;;;4973448;28;20903;-66
2022/03/29 08:04:45;;;;;;;9.80;7.10;;;14.10;78.10;;;;;;4973381;28;20188;-67
2022/03/29 08:07:11;;;;;;;8.33;7.30;;;14.20;79.30;;;;;;4970616;28;20659;-69
2022/03/29 08:09:37;;;;;;;8.50;7.00;;;14.50;78.30;;;;;;4971686;28;20440;-68
2022/03/29 08:12:03;;;;;;;10.00;7.00;;;14.80;77.60;;;;;;4970907;28;20893;-69
2022/03/29 08:14:29;;;;;;;10.00;7.50;;;15.10;75.60;;;;;;4971457;28;20179;-68
2022/03/29 08:16:56;;;;;;;8.60;7.70;;;15.40;74.10;;;;;;4972195;28;20442;-69
2022/03/29 08:19:22;;;;;;;10.10;6.47;;;15.80;73.70;;;;;;4971688;28;20208;-69
2022/03/29 08:21:49;;;;;;;9.33;7.73;;;16.10;73.60;;;;;;4975609;28;20411;-67
2022/03/29 08:24:20;;;;;;;12.50;6.73;;;16.50;72.40;;;;;;4976767;28;20412;-66
2022/03/29 08:26:48;;;;;;;16.27;6.77;;;17.00;71.90;;;;;;4977265;28;20407;-68
2022/03/29 08:29:15;;;;;;;7.17;6.17;;;17.70;70.80;;;;;;4977183;28;20410;-69
2022/03/29 08:31:41;;;;;;;7.30;6.17;;;18.10;68.00;;;;;;4976740;28;20417;-68
2022/03/29 08:34:07;;;;;;;5.77;5.27;;;18.40;65.70;;;;;;4976520;28;20412;-69
2022/03/29 08:36:33;;;;;;;7.20;5.80;;;18.70;65.40;;;;;;4976742;28;20200;-68
2022/03/29 08:39:02;;;;;;;7.63;6.30;;;19.40;64.00;;;;;;4976795;28;20458;-68
2022/03/29 08:41:37;;;;;;;6.50;5.90;;;19.90;59.10;;;;;;4977224;28;20880;-68
2022/03/29 08:44:03;;;;;;;7.13;6.43;;;20.20;58.60;;;;;;4976573;28;20399;-69
2022/03/29 08:46:38;;;;;;;10.10;7.10;;;20.30;58.00;;;;;;4976444;28;20487;-70
2022/03/29 08:49:05;;;;;;;10.60;7.33;;;20.20;57.80;;;;;;4977130;28;20378;-66
2022/03/29 08:51:32;;;;;;;8.87;6.90;;;19.90;57.70;;;;;;4977128;28;20972;-68
2022/03/29 08:53:58;;;;;;;7.33;6.23;;;19.90;57.80;;;;;;4976545;28;20591;-68
2022/03/29 08:56:24;;;;;;;8.10;6.30;;;19.80;58.40;;;;;;4976706;28;20522;-68
2022/03/29 08:58:50;;;;;;;8.20;7.40;;;19.90;58.30;;;;;;4976627;28;20550;-68
2022/03/29 09:01:21;;;;;;;11.73;8.03;;;19.70;58.10;;;;;;4976327;28;20488;-67
2022/03/29 09:04:07;;;;;;;8.70;6.20;;;19.50;58.20;;;;;;4975000;28;20417;-68
2022/03/29 09:06:54;;;;;;;7.57;6.70;;;19.40;58.60;;;;;;4976736;28;20752;-68
2022/03/29 09:09:25;;;;;;;8.60;7.30;;;19.30;57.50;;;;;;4976868;28;20810;-68
2022/03/29 09:11:53;;;;;;;12.03;7.43;;;18.90;57.10;;;;;;4976368;28;20408;-69
2022/03/29 09:14:20;;;;;;;8.97;7.27;;;18.60;58.00;;;;;;4976021;28;20413;-68
2022/03/29 09:16:46;;;;;;;10.17;8.23;;;18.50;58.60;;;;;;4975585;28;20427;-67
2022/03/29 09:19:11;;;;;;;8.70;7.43;;;18.30;58.50;;;;;;4976328;28;20527;-67
2022/03/29 09:21:44;;;;;;;12.00;8.00;;;18.10;59.30;;;;;;4976614;28;20172;-67
2022/03/29 09:24:14;;;;;;;8.03;7.13;;;18.00;60.70;;;;;;4980757;28;20171;-68
2022/03/29 09:26:41;;;;;;;9.53;7.40;;;17.80;59.20;;;;;;4977340;28;20400;-67
2022/03/29 09:29:24;;;;;;;8.30;7.47;;;17.70;59.70;;;;;;4976154;28;20427;-69
2022/03/29 09:32:06;;;;;;;9.40;6.07;;;17.80;59.40;;;;;;4956568;28;20483;-68
2022/03/29 09:34:32;;;;;;;10.47;6.60;;;18.00;58.00;;;;;;4954814;29;20420;-68
2022/03/29 09:36:59;;;;;;;8.77;6.53;;;18.20;57.80;;;;;;4957002;29;20448;-68
2022/03/29 09:39:30;;;;;;;11.73;6.47;;;18.50;57.40;;;;;;4956732;28;20451;-67
2022/03/29 09:42:23;;;;;;;8.80;6.33;;;18.90;56.20;;;;;;4956754;28;20793;-68
2022/03/29 09:44:51;;;;;;;7.77;6.43;;;19.10;55.30;;;;;;4963364;28;20436;-69
2022/03/29 09:47:20;;;;;;;9.57;7.80;;;19.10;55.30;;;;;;4975895;28;20423;-68
2022/03/29 09:50:02;;;;;;;10.23;6.97;;;19.30;55.90;;;;;;4975884;28;20764;-69
2022/03/29 09:52:29;;;;;;;11.43;7.13;;;20.00;55.70;;;;;;4975890;28;20910;-69
2022/03/29 09:55:13;;;;;;;11.30;7.40;;;20.60;55.20;;;;;;4975169;28;20431;-69
2022/03/29 09:57:57;;;;;;;9.73;6.70;;;21.40;53.90;;;;;;4974095;28;20403;-68
2022/03/29 10:00:32;;;;;;;10.93;6.93;;;22.00;52.90;;;;;;4975545;28;20425;-68
2022/03/29 10:02:58;;;;;;;9.73;7.37;;;22.60;52.00;;;;;;4975535;28;20417;-69
2022/03/29 10:05:25;;;;;;;7.50;6.80;;;23.10;52.20;;;;;;4975309;28;20427;-69
2022/03/29 10:09:25;;;;;;;9.00;7.10;;;23.40;50.00;;;;;;4975614;28;20733;-69
2022/03/29 10:10:45;;;;;;;10.60;8.10;;;23.80;50.00;;;;;;4975209;28;20408;-69
2022/03/29 10:13:11;;;;;;;11.40;7.60;;;24.20;50.20;;;;;;4973927;28;20412;-67
2022/03/29 10:15:39;;;;;;;7.60;6.83;;;24.20;49.70;;;;;;4974890;28;20478;-68
2022/03/29 10:18:05;;;;;;;13.07;8.60;;;24.10;49.70;;;;;;4975171;28;20447;-67
2022/03/29 10:20:31;;;;;;;8.97;7.30;;;23.80;49.00;;;;;;4974017;28;20786;-68
2022/03/29 10:22:58;;;;;;;9.63;6.77;;;23.70;50.40;;;;;;4975239;28;20403;-69
2022/03/29 10:25:26;;;;;;;13.20;7.33;;;23.90;49.50;;;;;;4973480;28;20409;-69
2022/03/29 10:27:52;;;;;;;10.90;7.87;;;24.00;48.50;;;;;;4975039;28;20750;-69
2022/03/29 10:30:36;;;;;;;10.50;7.77;;;24.10;48.10;;;;;;4974409;28;20491;-69
2022/03/29 10:33:24;;;;;;;9.40;7.30;;;24.20;49.00;;;;;;4974866;28;20873;-69
2022/03/29 10:35:59;;;;;;;10.93;8.23;;;24.50;47.90;;;;;;4973546;28;20426;-68
2022/03/29 10:38:43;;;;;;;8.70;7.10;;;24.20;47.60;;;;;;4975008;28;20447;-69
2022/03/29 10:41:44;;;;;;;12.23;8.70;;;24.10;49.30;;;;;;4974803;28;20379;-69
2022/03/29 10:44:11;;;;;;;9.30;7.60;;;24.10;48.70;;;;;;4963410;28;20428;-71
2022/03/29 10:46:40;;;;;;;11.70;7.53;;;23.70;49.00;;;;;;4973874;28;20435;-69
2022/03/29 10:49:32;;;;;;;9.40;8.27;;;23.10;48.60;;;;;;4974911;28;20409;-69
2022/03/29 10:52:04;;;;;;;13.97;8.80;;;22.70;49.60;;;;;;4974812;28;20417;-68
2022/03/29 10:54:32;;;;;;;13.23;7.87;;;22.30;49.00;;;;;;4974226;28;20379;-68
2022/03/29 10:57:07;;;;;;;10.07;7.40;;;22.40;50.40;;;;;;4974748;28;20438;-68
2022/03/29 10:59:37;;;;;;;12.43;8.17;;;22.40;49.40;;;;;;4973030;28;20445;-69
2022/03/29 11:02:13;;;;;;;10.00;7.90;;;22.40;49.20;;;;;;4974446;28;20406;-69
2022/03/29 11:05:18;;;;;;;13.33;7.63;;;22.40;49.60;;;;;;4974163;28;20427;-69
2022/03/29 11:07:52;;;;;;;11.37;8.10;;;22.30;48.30;;;;;;4974383;28;20408;-69
2022/03/29 11:10:21;;;;;;;8.77;7.70;;;22.10;48.50;;;;;;4974765;28;20758;-69
2022/03/29 11:12:59;;;;;;;9.73;7.53;;;21.80;48.40;;;;;;4972735;28;20566;-68
2022/03/29 11:15:25;;;;;;;7.70;6.90;;;21.70;48.70;;;;;;4972865;28;20962;-68
2022/03/29 11:17:55;;;;;;;8.93;7.13;;;21.40;49.20;;;;;;4974492;28;20403;-69
2022/03/29 11:20:56;;;;;;;10.83;7.60;;;21.30;49.20;;;;;;4974304;28;20404;-69
2022/03/29 11:23:34;;;;;;;10.33;7.27;;;21.10;49.60;;;;;;4974091;28;20907;-69
2022/03/29 11:26:14;;;;;;;10.50;7.60;;;21.00;47.60;;;;;;4971975;28;20437;-67
2022/03/29 11:28:52;;;;;;;12.17;7.43;;;20.70;48.50;;;;;;4979622;28;20413;-68
2022/03/29 11:31:19;;;;;;;9.00;6.13;;;20.50;48.70;;;;;;4975363;28;20473;-67
2022/03/29 11:33:49;;;;;;;10.77;6.87;;;20.60;50.40;;;;;;4974042;28;20432;-69
2022/03/29 11:36:16;;;;;;;8.93;6.80;;;20.70;51.00;;;;;;4973791;28;20463;-67
2022/03/29 11:38:41;;;;;;;10.10;7.73;;;20.90;50.70;;;;;;4974079;28;20817;-67
2022/03/29 11:41:26;;;;;;;10.60;6.77;;;21.20;51.00;;;;;;4973237;28;20414;-68
2022/03/29 11:44:05;;;;;;;7.67;6.80;;;21.40;50.00;;;;;;4972980;28;20397;-64
2022/03/29 11:46:53;;;;;;;13.30;7.17;;;21.70;50.00;;;;;;4973048;28;20413;-72
2022/03/29 11:49:21;;;;;;;9.90;6.57;;;21.80;48.50;;;;;;4971595;28;20418;-66
2022/03/29 11:52:03;;;;;;;10.13;6.10;;;21.70;49.70;;;;;;4972767;28;20411;-66
2022/03/29 11:54:29;;;;;;;7.20;6.50;;;21.60;49.30;;;;;;4974805;28;20401;-66
2022/03/29 11:56:55;;;;;;;11.93;7.10;;;21.50;49.20;;;;;;4977133;28;20422;-67
2022/03/29 11:59:20;;;;;;;11.70;7.80;;;21.30;49.90;;;;;;4977475;28;20205;-66
2022/03/29 12:01:46;;;;;;;10.03;7.43;;;21.00;50.30;;;;;;4977479;28;20652;-67
2022/03/29 12:04:12;;;;;;;9.37;6.63;;;20.90;49.40;;;;;;4977103;28;20179;-66
2022/03/29 12:06:49;;;;;;;10.37;7.73;;;20.90;51.10;;;;;;4976633;28;20179;-66
2022/03/29 12:09:22;;;;;;;10.43;7.93;;;20.90;50.50;;;;;;4976238;28;20423;-67
2022/03/29 12:11:48;;;;;;;8.80;6.40;;;20.70;51.30;;;;;;4977235;28;20431;-66
2022/03/29 12:14:19;;;;;;;13.50;7.33;;;20.50;50.70;;;;;;4976768;28;20416;-68
2022/03/29 12:16:46;;;;;;;10.73;7.57;;;20.40;51.70;;;;;;4976328;28;20180;-67
2022/03/29 12:19:18;;;;;;;11.23;8.40;;;20.30;51.50;;;;;;4977090;28;20820;-71
2022/03/29 12:21:49;;;;;;;12.93;8.13;;;20.40;52.80;;;;;;4977195;28;20416;-68
2022/03/29 12:24:16;;;;;;;11.73;7.03;;;20.50;52.10;;;;;;4976749;28;20390;-66
2022/03/29 12:26:48;;;;;;;11.87;7.00;;;20.50;51.90;;;;;;4977249;28;20413;-66
2022/03/29 12:29:16;;;;;;;11.50;8.53;;;20.40;51.90;;;;;;4977993;28;20389;-66
2022/03/29 12:31:43;;;;;;;10.53;7.37;;;20.50;52.50;;;;;;4977151;28;20762;-66
2022/03/29 12:34:12;;;;;;;8.80;7.80;;;20.80;52.40;;;;;;4976532;28;20992;-68
2022/03/29 12:36:48;;;;;;;9.60;6.73;;;21.00;51.50;;;;;;4977334;28;20516;-67
2022/03/29 12:39:14;;;;;;;10.43;7.60;;;21.10;51.80;;;;;;4979656;28;20462;-67
2022/03/29 12:41:44;;;;;;;14.17;7.30;;;21.20;51.50;;;;;;4979129;28;20427;-66
2022/03/29 12:44:12;;;;;;;8.70;7.47;;;21.20;51.10;;;;;;4975013;28;20420;-66
2022/03/29 12:46:40;;;;;;;9.97;7.90;;;21.30;51.40;;;;;;4976054;28;20439;-66
2022/03/29 12:49:06;;;;;;;8.33;6.80;;;21.30;50.70;;;;;;4975387;28;20423;-67
2022/03/29 12:51:39;;;;;;;11.60;8.40;;;21.30;49.80;;;;;;4973697;28;20419;-67
2022/03/29 12:54:07;;;;;;;9.43;6.97;;;21.40;49.20;;;;;;4974900;28;20411;-66
2022/03/29 12:56:38;;;;;;;16.30;7.20;;;21.20;49.70;;;;;;4976169;28;20491;-67
2022/03/29 12:59:32;;;;;;;15.33;8.97;;;21.20;50.10;;;;;;4976639;28;20448;-66
2022/03/29 13:02:12;;;;;;;11.13;7.40;;;21.00;50.50;;;;;;4976837;28;20414;-67